LTAT/MLX METAR and TAF weather

Enter ICAO airport designator
Station Type Date Time Source
LTAT METAR 2021/01/17 18:50 UTC NOAA

LTAT 171850Z 20005KT 120V250 9999 FEW020 SCT035 BKN090 06/01 Q1003 NOSIG


Station Type Date Time Source
LTAT Decoded METAR 2021/01/17 18:50 UTC NOAA

Malatya / Erhac, Turkey (LTAT) 38-26N 038-05E 849M
Jan 17, 2021 - 01:50 PM EST / 2021.01.17 1850 UTC
Wind: from the SSW (200 degrees) at 6 MPH (5 KT) (direction variable):0
Visibility: greater than 7 mile(s):0
Sky conditions: mostly cloudy
Temperature: 42 F (6 C)
Dew Point: 33 F (1 C)
Relative Humidity: 70%
Pressure (altimeter): 29.62 in. Hg (1003 hPa)
ob: LTAT 171850Z 20005KT 120V250 9999 FEW020 SCT035 BKN090 06/01 Q1003 NOSIG
cycle: 19

Station Type Date Time Source
LTAT TAF 2021/01/17 18:03 UTC NOAA

TAF LTAT 171640Z 1718/1818 VRB02KT 9999 FEW015 BKN035 OVC090
TEMPO 1718/1721 21012KT
TEMPO 1721/1724 32014KT 4000 -RASN BR
BECMG 1808/1810 SCT040 BKN100

Example: see airport list